createdAt,value
2023-04-19T04:21:21.527Z,0.30
2023-04-19T04:23:50.084Z,0.30
2023-04-19T04:26:19.954Z,0.30
2023-04-19T04:28:51.880Z,0.30
2023-04-19T04:31:18.841Z,0.40
2023-04-19T04:33:46.010Z,0.30
2023-04-19T04:36:15.423Z,0.30
2023-04-19T04:38:42.991Z,0.50
2023-04-19T04:41:12.087Z,0.40
2023-04-19T04:43:39.751Z,0.30
2023-04-19T04:46:08.931Z,0.40
2023-04-19T04:48:35.754Z,0.40
2023-04-19T04:51:02.583Z,0.30
2023-04-19T04:53:29.452Z,0.30
2023-04-19T04:55:56.282Z,0.30
2023-04-19T04:58:24.109Z,0.30
2023-04-19T05:00:51.382Z,0.20
2023-04-19T05:03:18.241Z,0.40
2023-04-19T05:05:45.380Z,0.30
2023-04-19T05:08:15.330Z,0.30
2023-04-19T05:10:42.161Z,0.40
2023-04-19T05:13:09.017Z,0.30
2023-04-19T05:15:37.724Z,0.40
2023-04-19T05:18:05.575Z,0.40
2023-04-19T05:20:34.031Z,0.30
2023-04-19T05:23:03.973Z,0.47
2023-04-19T05:25:31.198Z,0.50
2023-04-19T05:27:58.840Z,0.40
2023-04-19T05:30:25.686Z,0.40
2023-04-19T05:32:52.813Z,0.40
2023-04-19T05:35:20.560Z,0.45
2023-04-19T05:37:47.456Z,0.30
2023-04-19T05:40:14.279Z,0.40
2023-04-19T05:42:43.913Z,0.50
2023-04-19T05:45:11.394Z,0.50
2023-04-19T05:47:38.341Z,0.40
2023-04-19T05:50:05.621Z,0.40
2023-04-19T05:52:32.446Z,0.38
2023-04-19T05:54:59.772Z,0.40
2023-04-19T05:57:26.959Z,0.40
2023-04-19T05:59:55.130Z,0.40
2023-04-19T06:02:22.225Z,0.40
2023-04-19T06:04:49.621Z,0.47
2023-04-19T06:07:30.179Z,0.40
2023-04-19T06:09:58.587Z,0.20
2023-04-19T06:12:26.030Z,0.40
2023-04-19T06:14:53.004Z,0.40
2023-04-19T06:17:25.323Z,0.40
2023-04-19T06:19:53.159Z,0.40
2023-04-19T06:22:20.494Z,0.30
2023-04-19T06:24:50.364Z,0.38
2023-04-19T06:27:18.418Z,0.40
2023-04-19T06:29:45.260Z,0.40
2023-04-19T06:32:12.133Z,0.47
2023-04-19T06:34:38.894Z,0.40
2023-04-19T06:37:08.481Z,0.50
2023-04-19T06:39:36.234Z,0.50
2023-04-19T06:42:03.785Z,0.50
2023-04-19T06:44:32.139Z,0.35
2023-04-19T06:46:59.063Z,0.30
2023-04-19T06:49:26.152Z,0.30
2023-04-19T06:51:53.458Z,0.30
2023-04-19T06:54:20.464Z,0.40
2023-04-19T06:56:48.842Z,0.40
2023-04-19T06:59:19.442Z,0.30
2023-04-19T07:01:47.327Z,0.40
2023-04-19T07:04:15.673Z,0.30
2023-04-19T07:06:45.811Z,0.40
2023-04-19T07:09:12.712Z,0.40
2023-04-19T07:11:39.584Z,0.30
2023-04-19T07:14:06.595Z,0.30
2023-04-19T07:16:33.744Z,0.50
2023-04-19T07:19:00.594Z,0.40
2023-04-19T07:21:32.869Z,0.30
2023-04-19T07:24:00.191Z,0.30
2023-04-19T07:26:27.197Z,0.30
2023-04-19T07:28:54.078Z,0.30
2023-04-19T07:31:24.999Z,0.35
2023-04-19T07:33:52.449Z,0.32
2023-04-19T07:36:19.808Z,0.38
2023-04-19T07:38:46.855Z,0.40
2023-04-19T07:41:13.733Z,0.40
2023-04-19T07:43:41.826Z,1.00
2023-04-19T07:46:13.978Z,0.90
2023-04-19T07:48:40.938Z,1.00
2023-04-19T07:51:11.667Z,0.80
2023-04-19T07:53:40.133Z,0.73
2023-04-19T07:56:08.088Z,0.77
2023-04-19T07:58:35.766Z,1.35
2023-04-19T08:01:03.959Z,1.03
2023-04-19T08:03:32.652Z,1.67
2023-04-19T08:06:03.829Z,1.92
2023-04-19T08:08:30.840Z,1.10
2023-04-19T08:10:58.449Z,2.63
2023-04-19T08:13:26.382Z,3.80
2023-04-19T08:16:24.406Z,3.33
2023-04-19T08:18:42.913Z,4.47
2023-04-19T08:21:09.696Z,5.13
2023-04-19T08:23:47.785Z,4.78
2023-04-19T08:26:16.457Z,4.03
2023-04-19T08:28:43.410Z,4.95
2023-04-19T08:31:11.345Z,4.80
2023-04-19T08:33:40.602Z,4.32
2023-04-19T08:36:07.889Z,4.20
2023-04-19T08:38:34.761Z,4.20
2023-04-19T08:41:01.835Z,3.90
2023-04-19T08:43:33.532Z,3.70
2023-04-19T08:46:01.013Z,3.83
2023-04-19T08:48:29.473Z,4.22
2023-04-19T08:51:05.006Z,3.53
2023-04-19T08:53:35.823Z,3.75
2023-04-19T09:01:06.027Z,2.47
2023-04-19T09:03:38.509Z,2.63
2023-04-19T09:06:17.679Z,2.83
2023-04-19T09:08:45.789Z,1.90
2023-04-19T09:11:17.372Z,2.33
2023-04-19T09:13:45.050Z,2.80
2023-04-19T09:16:25.137Z,3.08
2023-04-19T09:19:11.543Z,2.92
2023-04-19T09:21:45.107Z,3.05
2023-04-19T09:24:12.081Z,3.65
2023-04-19T09:26:38.928Z,3.35
2023-04-19T09:29:06.975Z,3.40
2023-04-19T09:31:50.488Z,4.15
2023-04-19T09:34:19.456Z,3.72
2023-04-19T09:36:46.911Z,4.15
2023-04-19T09:39:14.814Z,4.32
2023-04-19T09:41:54.898Z,3.67
2023-04-19T09:45:01.742Z,4.03
2023-04-19T09:47:30.060Z,3.97
2023-04-19T09:50:21.362Z,3.95
2023-04-19T09:52:50.243Z,3.80
2023-04-19T09:57:48.599Z,4.35
2023-04-19T10:00:16.154Z,4.60
2023-04-19T10:02:45.034Z,4.72
2023-04-19T10:05:20.478Z,4.05
2023-04-19T10:07:49.709Z,3.40
2023-04-19T10:10:23.914Z,3.05
2023-04-19T10:15:49.252Z,3.78
2023-04-19T10:18:19.785Z,3.55
2023-04-19T10:21:01.521Z,3.37
2023-04-19T10:23:29.336Z,3.40
2023-04-19T10:25:59.953Z,3.38
2023-04-19T10:28:30.907Z,3.78
2023-04-19T10:31:04.049Z,3.50
2023-04-19T10:33:35.961Z,4.00
2023-04-19T10:36:03.141Z,4.10
2023-04-19T10:38:41.539Z,3.58
2023-04-19T10:41:15.496Z,3.07
2023-04-19T10:43:48.833Z,3.50
2023-04-19T10:46:23.275Z,3.00
2023-04-19T10:48:58.566Z,3.35
2023-04-19T10:51:33.209Z,3.55
2023-04-19T10:54:01.659Z,3.42
2023-04-19T10:56:34.345Z,2.75
2023-04-19T10:59:21.518Z,2.60
2023-04-19T11:01:51.441Z,2.75
2023-04-19T11:04:30.676Z,2.67
2023-04-19T11:07:02.824Z,1.95
2023-04-19T11:09:34.761Z,2.45
2023-04-19T11:12:15.908Z,1.90
2023-04-19T11:14:44.783Z,2.58
2023-04-19T11:17:32.035Z,2.47
2023-04-19T11:20:01.494Z,2.05
2023-04-19T11:22:35.194Z,2.80
2023-04-19T11:25:12.764Z,2.40
2023-04-19T11:27:44.183Z,3.60
2023-04-19T11:30:12.681Z,3.53
2023-04-19T11:32:46.397Z,2.87
2023-04-19T11:35:13.389Z,3.10
2023-04-19T11:37:40.307Z,2.80
2023-04-19T11:40:08.717Z,1.98
2023-04-19T11:42:36.255Z,2.78
2023-04-19T11:45:03.454Z,2.20
2023-04-19T11:47:32.754Z,2.50
2023-04-19T11:50:32.611Z,2.20
2023-04-19T11:53:00.417Z,2.35
2023-04-19T11:55:27.358Z,1.50
2023-04-19T11:57:54.173Z,1.40
2023-04-19T12:00:28.903Z,2.08
2023-04-19T12:02:56.286Z,2.05
2023-04-19T12:05:23.618Z,2.10
2023-04-19T12:08:04.264Z,1.60
2023-04-19T12:10:32.493Z,1.55
2023-04-19T12:12:59.571Z,2.65
2023-04-19T12:15:46.193Z,2.40
2023-04-19T12:18:13.195Z,2.70
2023-04-19T12:20:48.740Z,2.60
2023-04-19T12:23:17.495Z,2.00
2023-04-19T12:25:46.503Z,1.40
2023-04-19T12:28:14.997Z,2.35
2023-04-19T12:30:42.481Z,2.20
2023-04-19T12:33:09.883Z,2.40
2023-04-19T12:35:38.529Z,1.92
2023-04-19T12:38:05.421Z,1.60
2023-04-19T12:40:32.507Z,1.60
2023-04-19T12:42:59.328Z,2.00
2023-04-19T12:45:26.881Z,2.40
2023-04-19T12:47:53.872Z,2.15
2023-04-19T12:50:22.128Z,1.67
2023-04-19T12:52:49.010Z,1.70
2023-04-19T12:55:16.101Z,2.13
2023-04-19T12:57:43.024Z,2.00
2023-04-19T13:00:13.231Z,1.85
2023-04-19T13:02:40.418Z,1.40
2023-04-19T13:05:07.598Z,1.80
2023-04-19T13:07:34.611Z,2.17
2023-04-19T13:10:01.497Z,1.88
2023-04-19T13:12:28.619Z,2.22
2023-04-19T13:14:55.501Z,1.50
2023-04-19T13:17:22.856Z,1.70
2023-04-19T13:19:49.805Z,1.70
2023-04-19T13:22:16.733Z,1.90
2023-04-19T13:24:43.509Z,1.58
2023-04-19T13:27:10.495Z,2.03
2023-04-19T13:29:37.549Z,1.58
2023-04-19T13:32:07.560Z,1.30
2023-04-19T13:34:35.705Z,1.40
2023-04-19T13:37:02.492Z,1.30
2023-04-19T13:39:29.307Z,1.90
2023-04-19T13:41:56.316Z,1.05
2023-04-19T13:44:25.260Z,1.75
2023-04-19T13:46:52.173Z,1.50
2023-04-19T13:49:19.260Z,1.33
2023-04-19T13:51:50.056Z,1.80
2023-04-19T13:54:18.567Z,1.53
2023-04-19T13:56:46.058Z,1.80
2023-04-19T13:59:12.864Z,1.88
2023-04-19T14:01:41.249Z,1.98
2023-04-19T14:04:08.467Z,1.70
2023-04-19T14:06:35.522Z,1.40
2023-04-19T14:09:02.490Z,1.67
2023-04-19T14:11:29.543Z,1.60
2023-04-19T14:13:56.419Z,1.35
2023-04-19T14:16:25.259Z,1.10
2023-04-19T14:18:52.667Z,1.20
2023-04-19T14:21:19.734Z,1.00
2023-04-19T14:23:46.602Z,0.90
2023-04-19T14:26:13.513Z,2.10
2023-04-19T14:28:40.377Z,1.73
2023-04-19T14:31:07.184Z,1.85
2023-04-19T14:33:34.113Z,1.40
2023-04-19T14:36:01.499Z,1.35
2023-04-19T14:38:28.386Z,1.27
2023-04-19T14:40:55.389Z,1.40
2023-04-19T14:43:22.230Z,1.70
2023-04-19T14:45:50.003Z,1.23
2023-04-19T14:48:16.930Z,1.40
2023-04-19T14:50:43.717Z,1.27
2023-04-19T14:53:10.465Z,1.00
2023-04-19T14:55:38.149Z,1.40
2023-04-19T14:58:05.336Z,1.30
2023-04-19T15:00:34.459Z,1.10
2023-04-19T15:03:02.092Z,0.90
2023-04-19T15:05:29.148Z,1.00
2023-04-19T15:07:55.938Z,1.20
2023-04-19T15:10:25.494Z,1.02
2023-04-19T15:12:52.269Z,1.10
2023-04-19T15:15:19.146Z,1.13
2023-04-19T15:17:46.545Z,0.90
2023-04-19T15:20:13.541Z,0.70
2023-04-19T15:22:40.418Z,1.30
2023-04-19T15:25:07.544Z,0.82
2023-04-19T15:27:34.430Z,0.80
2023-04-19T15:30:01.280Z,0.80
2023-04-19T15:32:30.649Z,0.82
2023-04-19T15:34:57.441Z,0.80
2023-04-19T15:37:24.243Z,0.80
2023-04-19T15:39:51.132Z,0.77
2023-04-19T15:42:17.997Z,0.77
2023-04-19T15:44:44.804Z,0.68
2023-04-19T15:47:11.713Z,0.70
2023-04-19T15:49:40.560Z,0.77
2023-04-19T15:52:09.064Z,0.77
2023-04-19T15:54:37.773Z,0.60
2023-04-19T15:57:04.657Z,0.60
2023-04-19T15:59:31.680Z,0.50
2023-04-19T16:01:58.812Z,0.50
2023-04-19T16:04:25.984Z,0.70
2023-04-19T16:06:52.917Z,0.65
2023-04-19T16:09:20.333Z,0.70
2023-04-19T16:11:47.123Z,0.40
2023-04-19T16:14:13.980Z,0.55
2023-04-19T16:16:40.939Z,0.60
2023-04-19T16:19:07.800Z,0.60
2023-04-19T16:21:34.623Z,0.60
2023-04-19T16:24:01.450Z,0.50
2023-04-19T16:26:28.498Z,0.50
2023-04-19T16:28:55.393Z,0.60
2023-04-19T16:31:22.496Z,0.40
2023-04-19T16:33:49.333Z,0.60
2023-04-19T16:36:16.214Z,0.47
2023-04-19T16:38:43.036Z,0.60
2023-04-19T16:41:11.489Z,1.20
2023-04-19T16:43:38.361Z,0.40
2023-04-19T16:46:07.217Z,0.50
2023-04-19T16:48:34.077Z,0.50
2023-04-19T16:51:00.915Z,0.60
2023-04-19T16:53:27.777Z,0.50
2023-04-19T16:55:56.376Z,0.50
2023-04-19T16:58:23.531Z,0.50
2023-04-19T17:00:50.359Z,0.63
2023-04-19T17:03:17.224Z,1.00
2023-04-19T17:05:44.138Z,0.70
2023-04-19T17:08:12.128Z,0.50
2023-04-19T17:10:39.026Z,0.60
2023-04-19T17:13:05.810Z,0.50
2023-04-19T17:15:32.790Z,0.60
2023-04-19T17:17:59.696Z,0.70
2023-04-19T17:20:26.531Z,0.70
2023-04-19T17:22:53.354Z,0.50
2023-04-19T17:25:22.610Z,0.60
2023-04-19T17:27:49.491Z,0.50
2023-04-19T17:30:16.394Z,0.40
2023-04-19T17:32:43.255Z,0.50
2023-04-19T17:35:10.294Z,0.60
2023-04-19T17:37:37.326Z,0.50
2023-04-19T17:40:04.827Z,0.40
2023-04-19T17:42:31.745Z,0.30
2023-04-19T17:45:00.273Z,0.50
2023-04-19T17:47:27.503Z,0.40
2023-04-19T17:50:05.766Z,0.43
2023-04-19T17:52:32.806Z,0.57
2023-04-19T17:54:59.633Z,0.50
2023-04-19T17:57:29.106Z,0.40
2023-04-19T17:59:56.216Z,0.40
2023-04-19T18:02:24.121Z,0.50
2023-04-19T18:04:51.136Z,0.50
2023-04-19T18:07:17.955Z,0.80
2023-04-19T18:09:44.899Z,1.10
2023-04-19T18:12:11.759Z,1.08
2023-04-19T18:14:38.558Z,1.00
2023-04-19T18:17:06.197Z,1.03
2023-04-19T18:19:33.287Z,0.88
2023-04-19T18:22:01.193Z,1.00
2023-04-19T18:24:28.200Z,0.90
2023-04-19T18:26:55.108Z,0.88
2023-04-19T18:29:23.957Z,0.93
2023-04-19T18:31:50.917Z,0.90
2023-04-19T18:34:18.020Z,1.05
2023-04-19T18:36:44.891Z,0.90
2023-04-19T18:39:13.260Z,1.23
2023-04-19T18:41:40.121Z,1.10
2023-04-19T18:44:34.764Z,1.75
2023-04-19T18:46:54.468Z,1.60
2023-04-19T18:49:21.709Z,1.27
2023-04-19T18:51:48.586Z,1.70
2023-04-19T18:54:15.595Z,1.27
2023-04-19T18:57:11.659Z,1.30
2023-04-19T18:59:29.273Z,1.08
2023-04-19T19:01:56.816Z,0.75
2023-04-19T19:06:54.741Z,0.80
2023-04-19T19:09:23.345Z,0.90
2023-04-19T19:11:56.583Z,1.33
2023-04-19T19:14:24.162Z,1.30
2023-04-19T19:16:52.811Z,1.20
2023-04-19T19:19:22.894Z,1.23
2023-04-19T19:21:50.110Z,1.00
2023-04-19T19:24:16.981Z,1.00
2023-04-19T19:26:43.963Z,1.20
2023-04-19T19:29:15.174Z,1.33
2023-04-19T19:31:43.715Z,1.30
2023-04-19T19:34:25.364Z,1.45
2023-04-19T19:36:54.488Z,1.48
2023-04-19T19:44:17.816Z,2.17
2023-04-19T19:46:44.784Z,2.28
2023-04-19T19:49:13.182Z,3.60
2023-04-19T19:51:56.864Z,3.10
2023-04-19T19:54:25.089Z,2.92
2023-04-19T19:59:29.223Z,2.50
2023-04-19T20:01:57.942Z,2.65
2023-04-19T20:04:25.119Z,2.00
2023-04-19T20:09:22.091Z,5.05
2023-04-19T20:11:48.941Z,4.43
2023-04-19T20:14:15.740Z,4.65
2023-04-19T20:16:42.721Z,4.60
2023-04-19T20:19:10.297Z,4.43
2023-04-19T20:21:38.002Z,3.80
2023-04-19T20:24:05.971Z,4.40
2023-04-19T20:26:33.256Z,4.00
2023-04-19T20:29:01.155Z,5.07
2023-04-19T20:31:28.180Z,5.45
2023-04-19T20:33:55.099Z,4.85
2023-04-19T20:36:23.158Z,5.97
2023-04-19T20:38:50.933Z,5.18
2023-04-19T20:41:18.448Z,4.82
2023-04-19T20:43:45.295Z,4.68
2023-04-19T20:46:12.246Z,4.90
2023-04-19T20:48:39.420Z,5.97
2023-04-19T20:51:06.267Z,5.72
2023-04-19T20:53:33.650Z,5.53
2023-04-19T20:56:02.703Z,4.13
2023-04-19T20:58:32.212Z,4.40
2023-04-19T21:00:59.416Z,3.80
2023-04-19T21:03:26.489Z,4.40
2023-04-19T21:05:53.468Z,6.10
2023-04-19T21:08:20.457Z,6.88
2023-04-19T21:10:47.272Z,8.48
2023-04-19T21:13:14.063Z,6.45
2023-04-19T21:15:40.938Z,2.47
2023-04-19T21:18:07.750Z,2.67
2023-04-19T21:20:35.376Z,2.90
2023-04-19T21:23:03.417Z,3.80
2023-04-19T21:25:30.339Z,2.92
2023-04-19T21:27:57.256Z,3.60
2023-04-19T21:30:25.701Z,9.85
2023-04-19T21:32:53.100Z,9.77
2023-04-19T21:35:20.264Z,5.82
2023-04-19T21:37:47.134Z,2.17
2023-04-19T21:40:14.056Z,0.95
2023-04-19T21:42:40.850Z,0.98
2023-04-19T21:45:08.176Z,0.93
2023-04-19T21:47:34.978Z,1.00
2023-04-19T21:50:01.828Z,1.08
2023-04-19T21:52:28.760Z,0.90
2023-04-19T21:54:55.677Z,1.05
2023-04-19T21:57:24.588Z,1.00
2023-04-19T21:59:51.449Z,1.00
2023-04-19T22:02:18.532Z,1.10
2023-04-19T22:04:45.811Z,0.98
2023-04-19T22:07:12.945Z,1.20
2023-04-19T22:09:40.166Z,1.17
2023-04-19T22:12:07.038Z,1.20
2023-04-19T22:14:33.883Z,1.10
2023-04-19T22:17:02.521Z,1.20
2023-04-19T22:19:29.724Z,0.90
2023-04-19T22:21:56.889Z,0.95
2023-04-19T22:24:23.815Z,0.93
2023-04-19T22:26:51.105Z,1.05
2023-04-19T22:29:18.475Z,0.90
2023-04-19T22:31:45.667Z,0.80
2023-04-19T22:34:12.487Z,0.70
2023-04-19T22:36:39.346Z,1.00
2023-04-19T22:39:06.152Z,0.93
2023-04-19T22:41:33.510Z,0.90
2023-04-19T22:44:00.482Z,0.90
2023-04-19T22:46:27.609Z,0.80
2023-04-19T22:48:56.086Z,0.75
2023-04-19T22:51:24.337Z,0.70
2023-04-19T22:53:51.238Z,0.80
2023-04-19T22:56:18.033Z,0.98
2023-04-19T22:58:44.884Z,1.20
2023-04-19T23:01:12.128Z,1.47
2023-04-19T23:03:38.921Z,0.80
2023-04-19T23:06:06.014Z,1.00
2023-04-19T23:08:33.427Z,0.95
2023-04-19T23:11:00.414Z,1.13
2023-04-19T23:13:27.298Z,1.10
2023-04-19T23:15:54.528Z,1.63
2023-04-19T23:18:21.414Z,1.15
2023-04-19T23:20:48.307Z,1.05
2023-04-19T23:23:15.394Z,1.10
2023-04-19T23:25:42.506Z,0.70
2023-04-19T23:28:11.172Z,0.88
2023-04-19T23:30:39.338Z,1.38
2023-04-19T23:33:06.410Z,1.00
2023-04-19T23:35:33.396Z,1.00
2023-04-19T23:38:00.300Z,1.30
2023-04-19T23:40:27.113Z,1.00
2023-04-19T23:42:53.933Z,1.10
2023-04-19T23:45:20.872Z,0.98
2023-04-19T23:47:47.758Z,0.85
2023-04-19T23:50:14.639Z,1.20
2023-04-19T23:52:41.619Z,1.40
2023-04-19T23:55:09.271Z,1.10
2023-04-19T23:57:36.110Z,1.00
